createdAt,value
2022-09-23T00:01:35.492Z,8.01
2022-09-23T00:04:04.065Z,7.94
2022-09-23T00:06:33.220Z,7.93
2022-09-23T00:09:01.812Z,7.96
2022-09-23T00:11:32.162Z,7.95
2022-09-23T00:14:01.909Z,7.94
2022-09-23T00:16:32.850Z,7.92
2022-09-23T00:19:02.310Z,7.89
2022-09-23T00:21:30.853Z,7.91
2022-09-23T00:23:59.983Z,7.94
2022-09-23T00:26:28.932Z,7.98
2022-09-23T00:28:58.844Z,8.02
2022-09-23T00:31:28.623Z,8.05
2022-09-23T00:33:57.985Z,8.06
2022-09-23T00:36:27.653Z,8.05
2022-09-23T00:38:56.962Z,8.04
2022-09-23T00:41:26.543Z,8.04
2022-09-23T00:43:58.193Z,7.98
2022-09-23T00:46:31.653Z,7.88
2022-09-23T00:49:06.194Z,7.81
2022-09-23T00:51:39.694Z,7.79
2022-09-23T00:54:08.774Z,7.69
2022-09-23T00:56:40.603Z,7.62
2022-09-23T00:59:10.981Z,7.57
2022-09-23T01:01:41.533Z,7.51
2022-09-23T01:04:10.202Z,7.58
2022-09-23T01:06:38.783Z,7.62
2022-09-23T01:09:07.665Z,7.64
2022-09-23T01:11:49.254Z,7.62
2022-09-23T01:14:38.282Z,7.60
2022-09-23T01:17:13.713Z,7.57
2022-09-23T01:20:20.614Z,7.52
2022-09-23T01:22:57.515Z,7.58
2022-09-23T01:25:47.582Z,7.63
2022-09-23T01:28:42.663Z,7.65
2022-09-23T01:31:19.592Z,7.71
2022-09-23T01:33:55.436Z,7.75
2022-09-23T01:36:27.814Z,7.72
2022-09-23T01:39:02.388Z,7.67
2022-09-23T01:41:51.944Z,7.62
2022-09-23T01:44:27.007Z,7.54
2022-09-23T01:47:01.581Z,7.53
2022-09-23T01:49:35.883Z,7.56
2022-09-23T01:52:14.993Z,7.52
2022-09-23T01:54:51.722Z,7.49
2022-09-23T01:57:26.771Z,7.48
2022-09-23T02:00:00.815Z,7.52
2022-09-23T02:02:36.849Z,7.42
2022-09-23T02:05:12.754Z,7.40
2022-09-23T02:07:46.233Z,7.41
2022-09-23T02:10:22.053Z,7.37
2022-09-23T02:12:52.474Z,7.36
2022-09-23T02:15:25.083Z,7.28
2022-09-23T02:18:00.175Z,7.21
2022-09-23T02:20:32.043Z,7.22
2022-09-23T02:23:06.530Z,7.25
2022-09-23T02:25:41.742Z,7.25
2022-09-23T02:28:16.433Z,7.29
2022-09-23T02:30:54.702Z,7.30
2022-09-23T02:33:30.324Z,7.33
2022-09-23T02:36:07.425Z,7.36
2022-09-23T02:38:40.862Z,7.36
2022-09-23T02:41:16.273Z,7.35
2022-09-23T02:43:51.874Z,7.32
2022-09-23T02:46:21.563Z,7.26
2022-09-23T02:48:57.114Z,7.18
2022-09-23T02:51:29.067Z,7.21
2022-09-23T02:53:59.351Z,7.18
2022-09-23T02:56:29.293Z,7.11
2022-09-23T02:58:59.341Z,7.07
2022-09-23T03:01:39.603Z,7.11
2022-09-23T03:04:19.200Z,7.14
2022-09-23T03:06:56.453Z,7.07
2022-09-23T03:09:31.454Z,7.02
2022-09-23T03:12:13.431Z,7.03
2022-09-23T03:14:52.272Z,7.01
2022-09-23T03:17:27.740Z,6.82
2022-09-23T03:20:03.062Z,6.71
2022-09-23T03:22:36.531Z,6.58
2022-09-23T03:25:09.701Z,6.53
2022-09-23T03:27:42.253Z,6.58
2022-09-23T03:30:12.124Z,6.61
2022-09-23T03:32:43.563Z,6.69
2022-09-23T03:35:15.800Z,6.82
2022-09-23T03:37:50.580Z,6.88
2022-09-23T03:40:24.774Z,6.89
2022-09-23T03:42:56.365Z,6.83
2022-09-23T03:45:29.667Z,6.88
2022-09-23T03:47:58.596Z,6.87
2022-09-23T03:50:29.161Z,6.91
2022-09-23T03:52:57.722Z,6.95
2022-09-23T03:55:26.248Z,6.94
2022-09-23T03:57:55.774Z,6.94
2022-09-23T04:00:24.385Z,6.96
2022-09-23T04:02:52.973Z,6.95
2022-09-23T04:05:21.474Z,6.89
2022-09-23T04:07:51.435Z,6.82
2022-09-23T04:10:20.498Z,6.68
2022-09-23T04:12:49.224Z,6.58
2022-09-23T04:15:17.965Z,6.53
2022-09-23T04:17:46.596Z,6.51
2022-09-23T04:20:15.476Z,6.55
2022-09-23T04:22:43.903Z,6.57
2022-09-23T04:25:13.925Z,6.62
2022-09-23T04:27:42.494Z,6.62
2022-09-23T04:30:11.973Z,6.56
2022-09-23T04:32:40.603Z,6.55
2022-09-23T04:35:09.816Z,6.45
2022-09-23T04:37:38.427Z,6.41
2022-09-23T04:40:08.534Z,6.41
2022-09-23T04:42:38.514Z,6.46
2022-09-23T04:45:07.942Z,6.51
2022-09-23T04:47:37.054Z,6.60
2022-09-23T04:50:06.166Z,6.68
2022-09-23T04:52:34.847Z,6.69
2022-09-23T04:55:03.375Z,6.68
2022-09-23T04:57:32.218Z,6.74
2022-09-23T05:00:02.626Z,6.75
2022-09-23T05:02:32.351Z,6.71
2022-09-23T05:05:01.170Z,6.67
2022-09-23T05:07:30.250Z,6.65
2022-09-23T05:09:58.735Z,6.63
2022-09-23T05:12:27.455Z,6.63
2022-09-23T05:14:56.128Z,6.66
2022-09-23T05:17:26.081Z,6.71
2022-09-23T05:19:54.828Z,6.79
2022-09-23T05:22:23.378Z,6.80
2022-09-23T05:24:52.017Z,6.84
2022-09-23T05:27:20.689Z,6.87
2022-09-23T05:29:50.615Z,6.89
2022-09-23T05:32:18.876Z,6.98
2022-09-23T05:34:49.030Z,7.05
2022-09-23T05:37:17.568Z,7.24
2022-09-23T05:39:46.037Z,7.34
2022-09-23T05:42:14.689Z,7.47
2022-09-23T05:44:43.657Z,7.54
2022-09-23T05:47:12.427Z,7.56
2022-09-23T05:49:58.772Z,7.60
2022-09-23T05:52:30.605Z,7.65
2022-09-23T05:54:59.135Z,7.65
2022-09-23T05:57:27.706Z,7.64
2022-09-23T05:59:56.408Z,7.75
2022-09-23T06:02:25.354Z,7.81
2022-09-23T06:04:53.868Z,7.88
2022-09-23T06:07:22.486Z,7.98
2022-09-23T06:09:54.376Z,8.12
2022-09-23T06:12:23.450Z,8.26
2022-09-23T06:14:53.178Z,8.37
2022-09-23T06:17:21.548Z,8.51
2022-09-23T06:19:50.039Z,8.66
2022-09-23T06:22:18.876Z,8.81
2022-09-23T06:24:47.337Z,8.96
2022-09-23T06:27:17.326Z,9.12
2022-09-23T06:29:45.869Z,9.29
2022-09-23T06:32:14.317Z,9.40
2022-09-23T06:34:51.704Z,9.52
2022-09-23T06:37:21.046Z,9.63
2022-09-23T06:39:49.718Z,9.74
2022-09-23T06:42:19.830Z,9.92
2022-09-23T06:44:48.350Z,10.08
2022-09-23T06:47:17.136Z,10.19
2022-09-23T06:49:45.720Z,10.34
2022-09-23T06:52:14.251Z,10.42
2022-09-23T06:54:42.804Z,10.41
2022-09-23T06:57:11.483Z,10.44
2022-09-23T06:59:41.928Z,10.53
2022-09-23T07:02:11.273Z,10.59
2022-09-23T07:04:40.110Z,10.62
2022-09-23T07:07:10.562Z,10.74
2022-09-23T07:09:39.150Z,10.89
2022-09-23T07:12:08.358Z,10.99
2022-09-23T07:14:36.857Z,11.11
2022-09-23T07:17:07.200Z,11.27
2022-09-23T07:19:36.726Z,11.37
2022-09-23T07:22:05.586Z,11.46
2022-09-23T07:24:34.894Z,11.61
2022-09-23T07:27:03.445Z,11.73
2022-09-23T07:29:41.741Z,11.79
2022-09-23T07:32:17.741Z,11.83
2022-09-23T07:34:47.636Z,11.93
2022-09-23T07:37:16.241Z,12.01
2022-09-23T07:39:45.375Z,12.14
2022-09-23T07:42:15.326Z,12.26
2022-09-23T07:44:48.238Z,12.34
2022-09-23T07:47:18.446Z,12.48
2022-09-23T07:49:47.150Z,12.65
2022-09-23T07:52:15.770Z,12.77
2022-09-23T07:54:44.339Z,12.86
2022-09-23T07:57:12.953Z,12.97
2022-09-23T07:59:43.477Z,13.05
2022-09-23T08:02:16.731Z,13.19
2022-09-23T08:04:46.891Z,13.29
2022-09-23T08:07:15.736Z,13.37
2022-09-23T08:09:45.906Z,13.44
2022-09-23T08:12:18.630Z,13.48
2022-09-23T08:14:47.508Z,13.50
2022-09-23T08:17:16.168Z,13.53
2022-09-23T08:19:44.666Z,13.55
2022-09-23T08:22:15.903Z,13.62
2022-09-23T08:24:44.407Z,13.71
2022-09-23T08:27:12.917Z,13.91
2022-09-23T08:29:41.670Z,13.99
2022-09-23T08:32:10.290Z,14.05
2022-09-23T08:34:38.841Z,14.13
2022-09-23T08:37:12.218Z,14.18
2022-09-23T08:39:42.148Z,14.33
2022-09-23T08:42:20.262Z,14.51
2022-09-23T08:44:54.067Z,14.63
2022-09-23T08:47:26.490Z,14.67
2022-09-23T08:50:01.797Z,14.76
2022-09-23T08:52:37.197Z,14.84
2022-09-23T08:55:13.332Z,15.00
2022-09-23T08:58:02.314Z,15.11
2022-09-23T09:00:42.311Z,15.24
2022-09-23T09:03:22.370Z,15.35
2022-09-23T09:05:54.421Z,15.46
2022-09-23T09:08:29.983Z,15.57
2022-09-23T09:11:01.028Z,15.68
2022-09-23T09:13:33.639Z,15.84
2022-09-23T09:16:23.949Z,16.01
2022-09-23T09:19:18.442Z,16.06
2022-09-23T09:21:53.225Z,16.13
2022-09-23T09:24:29.240Z,16.31
2022-09-23T09:26:59.625Z,16.43
2022-09-23T09:29:36.224Z,16.43
2022-09-23T09:32:18.911Z,16.45
2022-09-23T09:34:54.911Z,16.46
2022-09-23T09:37:31.787Z,16.46
2022-09-23T09:40:01.101Z,16.40
2022-09-23T09:42:40.231Z,16.52
2022-09-23T09:45:20.043Z,16.63
2022-09-23T09:47:57.069Z,17.00
2022-09-23T09:50:45.039Z,17.14
2022-09-23T09:53:22.725Z,17.21
2022-09-23T09:56:05.963Z,17.36
2022-09-23T09:58:44.186Z,17.47
2022-09-23T10:01:25.272Z,17.50
2022-09-23T10:03:59.233Z,17.46
2022-09-23T10:06:31.971Z,17.36
2022-09-23T10:09:14.041Z,17.36
2022-09-23T10:11:43.382Z,17.62
2022-09-23T10:14:19.159Z,17.73
2022-09-23T10:17:04.105Z,17.87
2022-09-23T10:19:33.637Z,17.91
2022-09-23T10:22:06.751Z,17.97
2022-09-23T10:24:37.629Z,18.02
2022-09-23T10:27:10.072Z,18.01
2022-09-23T10:29:43.292Z,18.02
2022-09-23T10:32:22.074Z,18.07
2022-09-23T10:34:54.752Z,18.24
2022-09-23T10:37:32.127Z,18.33
2022-09-23T10:40:12.102Z,18.32
2022-09-23T10:43:08.435Z,18.56
2022-09-23T10:45:51.495Z,18.55
2022-09-23T10:48:28.919Z,18.66
2022-09-23T10:50:59.928Z,18.70
2022-09-23T10:53:42.553Z,18.86
2022-09-23T10:56:25.073Z,18.89
2022-09-23T10:59:11.400Z,18.82
2022-09-23T11:01:50.852Z,18.94
2022-09-23T11:04:39.255Z,18.88
2022-09-23T11:07:19.617Z,19.13
2022-09-23T11:10:23.245Z,19.38
2022-09-23T11:13:08.289Z,19.52
2022-09-23T11:15:46.536Z,19.39
2022-09-23T11:18:44.563Z,19.54
2022-09-23T11:21:42.832Z,19.47
2022-09-23T11:24:29.345Z,19.57
2022-09-23T11:27:10.204Z,19.75
2022-09-23T11:29:59.474Z,19.55
2022-09-23T11:32:54.453Z,19.65
2022-09-23T11:35:29.154Z,19.78
2022-09-23T11:38:03.599Z,19.75
2022-09-23T11:40:35.478Z,20.03
2022-09-23T11:43:08.697Z,20.20
2022-09-23T11:45:43.579Z,20.24
2022-09-23T11:48:17.636Z,20.36
2022-09-23T11:50:52.067Z,20.39
2022-09-23T11:53:30.377Z,20.41
2022-09-23T11:56:08.071Z,20.36
2022-09-23T11:58:46.602Z,20.39
2022-09-23T12:01:35.112Z,20.46
2022-09-23T12:04:20.116Z,20.69
2022-09-23T12:06:56.204Z,20.68
2022-09-23T12:09:53.863Z,20.75
2022-09-23T12:12:28.968Z,20.61
2022-09-23T12:15:04.163Z,20.63
2022-09-23T12:17:52.820Z,20.48
2022-09-23T12:20:43.486Z,20.23
2022-09-23T12:23:29.978Z,20.19
2022-09-23T12:26:02.397Z,19.97
2022-09-23T12:28:36.266Z,20.00
2022-09-23T12:31:10.586Z,19.80
2022-09-23T12:33:39.831Z,19.93
2022-09-23T12:36:10.865Z,20.06
2022-09-23T12:38:48.642Z,20.12
2022-09-23T12:41:26.218Z,19.82
2022-09-23T12:44:02.960Z,19.63
2022-09-23T12:46:31.760Z,19.53
2022-09-23T12:49:03.812Z,19.35
2022-09-23T12:51:33.243Z,19.25
2022-09-23T12:57:03.047Z,19.06
2022-09-23T12:59:34.830Z,18.93
2022-09-23T13:02:24.411Z,18.88
2022-09-23T13:05:10.706Z,18.79
2022-09-23T13:07:45.373Z,18.71
2022-09-23T13:10:19.803Z,18.61
2022-09-23T13:12:50.016Z,18.56
2022-09-23T13:15:28.895Z,18.47
2022-09-23T13:18:23.376Z,18.41
2022-09-23T13:20:57.175Z,18.33
2022-09-23T13:23:26.967Z,18.27
2022-09-23T13:25:58.542Z,18.18
2022-09-23T13:28:34.765Z,18.08
2022-09-23T13:31:06.523Z,18.02
2022-09-23T13:33:45.354Z,17.96
2022-09-23T13:36:16.477Z,17.93
2022-09-23T13:38:47.095Z,17.88
2022-09-23T13:41:19.495Z,17.82
2022-09-23T13:43:52.095Z,17.80
2022-09-23T13:46:23.292Z,17.84
2022-09-23T13:48:55.199Z,17.88
2022-09-23T13:51:26.393Z,17.94
2022-09-23T13:53:56.747Z,18.09
2022-09-23T13:56:28.172Z,18.32
2022-09-23T13:59:21.758Z,18.38
2022-09-23T14:01:50.635Z,18.53
2022-09-23T14:04:25.562Z,18.60
2022-09-23T14:06:54.896Z,18.61
2022-09-23T14:09:28.741Z,18.68
2022-09-23T14:12:00.932Z,18.66
2022-09-23T14:14:31.658Z,18.70
2022-09-23T14:17:00.718Z,18.76
2022-09-23T14:19:29.425Z,18.82
2022-09-23T14:21:59.258Z,18.85
2022-09-23T14:24:34.930Z,18.88
2022-09-23T14:27:16.871Z,18.81
2022-09-23T14:29:49.534Z,18.68
2022-09-23T14:32:24.002Z,18.75
2022-09-23T14:34:55.086Z,18.60
2022-09-23T14:37:39.139Z,18.57
2022-09-23T14:40:14.866Z,18.60
2022-09-23T14:42:47.080Z,18.59
2022-09-23T14:45:21.130Z,18.55
2022-09-23T14:47:53.157Z,18.49
2022-09-23T14:50:34.214Z,18.56
2022-09-23T14:53:02.989Z,18.58
2022-09-23T14:55:32.503Z,18.61
2022-09-23T14:58:06.397Z,18.71
2022-09-23T15:00:36.460Z,18.69
2022-09-23T15:03:16.128Z,18.53
2022-09-23T15:05:48.058Z,18.30
2022-09-23T15:08:20.459Z,18.07
2022-09-23T15:10:50.619Z,17.95
2022-09-23T15:13:23.056Z,17.91
2022-09-23T15:15:55.542Z,17.87
2022-09-23T15:18:26.518Z,17.78
2022-09-23T15:20:58.666Z,17.57
2022-09-23T15:23:35.893Z,17.38
2022-09-23T15:26:07.903Z,17.21
2022-09-23T15:28:36.967Z,17.11
2022-09-23T15:31:09.382Z,17.07
2022-09-23T15:33:38.177Z,16.93
2022-09-23T15:36:08.571Z,16.77
2022-09-23T15:38:43.599Z,16.60
2022-09-23T15:41:13.922Z,16.53
2022-09-23T15:43:43.081Z,16.44
2022-09-23T15:46:19.212Z,16.32
2022-09-23T15:48:58.777Z,16.18
2022-09-23T15:51:27.922Z,16.09
2022-09-23T15:53:56.585Z,15.96
2022-09-23T15:56:27.328Z,15.91
2022-09-23T15:58:56.089Z,15.87
2022-09-23T16:01:29.752Z,15.75
2022-09-23T16:04:01.433Z,15.60
2022-09-23T16:06:29.983Z,15.50
2022-09-23T16:08:58.711Z,15.40
2022-09-23T16:11:32.103Z,15.33
2022-09-23T16:14:01.786Z,15.26
2022-09-23T16:16:32.074Z,15.14
2022-09-23T16:19:00.827Z,15.05
2022-09-23T16:21:30.441Z,14.95
2022-09-23T16:23:59.495Z,14.87
2022-09-23T16:26:31.118Z,14.87
2022-09-23T16:29:01.081Z,14.88
2022-09-23T16:31:31.570Z,14.71
2022-09-23T16:34:02.817Z,14.56
2022-09-23T16:36:33.919Z,14.43
2022-09-23T16:39:07.059Z,14.28
2022-09-23T16:41:35.939Z,14.17
2022-09-23T16:44:07.819Z,13.99
2022-09-23T16:46:38.016Z,13.94
2022-09-23T16:49:06.872Z,13.79
2022-09-23T16:51:38.697Z,13.71
2022-09-23T16:54:10.462Z,13.59
2022-09-23T16:56:45.592Z,13.52
2022-09-23T16:59:14.527Z,13.41
2022-09-23T17:02:01.611Z,13.31
2022-09-23T17:04:30.404Z,13.23
2022-09-23T17:06:59.410Z,13.17
2022-09-23T17:09:30.460Z,13.12
2022-09-23T17:12:08.107Z,12.97
2022-09-23T17:14:36.963Z,12.79
2022-09-23T17:17:06.896Z,12.74
2022-09-23T17:19:35.870Z,12.79
2022-09-23T17:22:04.447Z,12.69
2022-09-23T17:24:33.037Z,12.57
2022-09-23T17:27:01.723Z,12.48
2022-09-23T17:29:30.787Z,12.29
2022-09-23T17:31:59.388Z,12.30
2022-09-23T17:34:30.121Z,12.25
2022-09-23T17:36:59.068Z,12.18
2022-09-23T17:39:27.661Z,12.06
2022-09-23T17:41:58.932Z,12.08
2022-09-23T17:44:27.770Z,12.08
2022-09-23T17:46:56.424Z,12.05
2022-09-23T17:49:25.309Z,11.96
2022-09-23T17:51:56.071Z,11.79
2022-09-23T17:54:24.849Z,11.68
2022-09-23T17:56:53.402Z,11.67
2022-09-23T17:59:21.931Z,11.60
2022-09-23T18:01:50.454Z,11.51
2022-09-23T18:04:19.401Z,11.35
2022-09-23T18:06:48.641Z,11.31
2022-09-23T18:09:19.303Z,11.19
2022-09-23T18:11:50.045Z,11.14
2022-09-23T18:14:21.535Z,11.14
2022-09-23T18:16:52.345Z,11.08
2022-09-23T18:19:25.001Z,11.07
2022-09-23T18:21:56.309Z,10.96
2022-09-23T18:24:34.001Z,10.99
2022-09-23T18:27:03.123Z,11.05
2022-09-23T18:29:31.884Z,11.10
2022-09-23T18:32:00.554Z,11.15
2022-09-23T18:34:29.699Z,11.12
2022-09-23T18:36:58.722Z,11.13
2022-09-23T18:39:30.425Z,11.14
2022-09-23T18:41:59.164Z,11.12
2022-09-23T18:44:27.964Z,11.07
2022-09-23T18:46:56.670Z,11.06
2022-09-23T18:49:36.392Z,11.01
2022-09-23T18:52:07.067Z,10.87
2022-09-23T18:54:37.806Z,10.69
2022-09-23T18:57:06.566Z,10.49
2022-09-23T18:59:35.401Z,10.38
2022-09-23T19:02:04.371Z,10.36
2022-09-23T19:04:33.183Z,10.30
2022-09-23T19:07:01.974Z,10.17
2022-09-23T19:09:30.644Z,10.06
2022-09-23T19:12:02.690Z,10.03
2022-09-23T19:14:31.787Z,9.92
2022-09-23T19:17:00.425Z,9.95
2022-09-23T19:19:32.547Z,9.94
2022-09-23T19:22:01.906Z,9.89
2022-09-23T19:24:30.636Z,9.86
2022-09-23T19:27:03.536Z,9.80
2022-09-23T19:29:32.314Z,9.69
2022-09-23T19:32:01.094Z,9.66
2022-09-23T19:34:31.200Z,9.70
2022-09-23T19:36:59.966Z,9.78
2022-09-23T19:39:31.905Z,9.81
2022-09-23T19:42:02.267Z,9.83
2022-09-23T19:44:31.077Z,9.83
2022-09-23T19:47:00.508Z,9.85
2022-09-23T19:49:31.127Z,9.91
2022-09-23T19:52:00.641Z,9.93
2022-09-23T19:54:29.378Z,9.97
2022-09-23T19:56:59.647Z,9.95
2022-09-23T19:59:30.142Z,9.86
2022-09-23T20:01:58.990Z,9.80
2022-09-23T20:04:27.727Z,9.69
2022-09-23T20:06:56.505Z,9.54
2022-09-23T20:09:25.136Z,9.47
2022-09-23T20:11:53.907Z,9.38
2022-09-23T20:14:24.757Z,9.27
2022-09-23T20:16:55.098Z,9.15
2022-09-23T20:19:24.256Z,9.15
2022-09-23T20:22:13.088Z,9.21
2022-09-23T20:24:41.846Z,9.31
2022-09-23T20:27:09.463Z,9.35
2022-09-23T20:29:38.973Z,9.38
2022-09-23T20:32:09.498Z,9.42
2022-09-23T20:34:38.397Z,9.40
2022-09-23T20:37:07.077Z,9.37
2022-09-23T20:39:36.538Z,9.32
2022-09-23T20:42:09.559Z,9.29
2022-09-23T20:44:38.409Z,9.33
2022-09-23T20:47:08.515Z,9.29
2022-09-23T20:49:38.278Z,9.27
2022-09-23T20:52:07.457Z,9.29
2022-09-23T20:54:39.126Z,9.30
2022-09-23T20:57:08.000Z,9.29
2022-09-23T20:59:37.168Z,9.31
2022-09-23T21:02:07.248Z,9.29
2022-09-23T21:04:37.497Z,9.26
2022-09-23T21:07:06.180Z,9.22
2022-09-23T21:09:34.898Z,9.18
2022-09-23T21:12:04.072Z,9.13
2022-09-23T21:14:33.015Z,9.13
2022-09-23T21:17:01.635Z,9.13
2022-09-23T21:19:30.529Z,9.11
2022-09-23T21:22:00.519Z,9.08
2022-09-23T21:27:19.177Z,8.97
2022-09-23T21:29:47.827Z,8.95
2022-09-23T21:32:16.488Z,8.91
2022-09-23T21:34:45.060Z,8.90
2022-09-23T21:37:15.187Z,8.91
2022-09-23T21:40:04.170Z,8.90
2022-09-23T21:42:32.898Z,8.82
2022-09-23T21:45:01.902Z,8.82
2022-09-23T21:47:32.645Z,8.84
2022-09-23T21:50:01.553Z,8.81
2022-09-23T21:52:31.673Z,8.82
2022-09-23T21:55:00.379Z,8.81
2022-09-23T21:57:31.839Z,8.75
2022-09-23T22:00:00.412Z,8.71
2022-09-23T22:02:29.023Z,8.69
2022-09-23T22:04:57.978Z,8.68
2022-09-23T22:07:26.819Z,8.70
2022-09-23T22:09:57.246Z,8.71
2022-09-23T22:12:24.897Z,8.70
2022-09-23T22:14:53.558Z,8.71
2022-09-23T22:17:24.232Z,8.75
2022-09-23T22:19:52.926Z,8.79
2022-09-23T22:22:21.517Z,8.77
2022-09-23T22:24:51.717Z,8.75
2022-09-23T22:27:21.998Z,8.65
2022-09-23T22:30:00.709Z,8.77
2022-09-23T22:32:39.219Z,8.82
2022-09-23T22:35:09.156Z,8.85
2022-09-23T22:37:39.539Z,8.88
2022-09-23T22:40:11.241Z,8.89
2022-09-23T22:42:41.896Z,8.87
2022-09-23T22:45:11.960Z,8.87
2022-09-23T22:47:44.359Z,8.90
2022-09-23T22:50:14.628Z,8.86
2022-09-23T22:52:43.322Z,8.86
2022-09-23T22:55:12.609Z,8.86
2022-09-23T22:57:42.758Z,8.90
2022-09-23T23:00:13.718Z,8.87
2022-09-23T23:02:42.789Z,8.90
2022-09-23T23:05:11.861Z,8.88
2022-09-23T23:07:40.682Z,8.87
2022-09-23T23:10:10.541Z,8.89
2022-09-23T23:12:39.656Z,8.89
2022-09-23T23:15:13.011Z,8.83
2022-09-23T23:17:43.775Z,8.84
2022-09-23T23:20:12.485Z,8.86
2022-09-23T23:22:41.174Z,8.79
2022-09-23T23:25:10.939Z,8.81
2022-09-23T23:27:39.674Z,8.80
2022-09-23T23:30:10.974Z,8.75
2022-09-23T23:32:39.680Z,8.72
2022-09-23T23:35:09.218Z,8.73
2022-09-23T23:37:37.878Z,8.72
2022-09-23T23:40:07.426Z,8.71
2022-09-23T23:42:35.972Z,8.70
2022-09-23T23:45:04.947Z,8.71
2022-09-23T23:47:36.026Z,8.75
2022-09-23T23:50:05.760Z,8.79
2022-09-23T23:52:34.371Z,8.77
2022-09-23T23:55:03.305Z,8.73
2022-09-23T23:57:31.877Z,8.67
